CNS weather

Cairns International Airport
Cairns, Queensland, Australia

Public forecast

Using degrees Celsius for public forecast. Weather courtesy of forecast.io.

METAR (pilot weather report)

Retrieved 2019/02/20 14:00 UTC (9 minutes ago):

YBCS 201400Z AUTO 36003KT 9999 // NCD 30/23 Q1005 RMK RF00.0/000.4 FM1400 MOD TURB BLW 5000FT

TAF (pilot weather forecast)

Forecast is more than 6 hours old.

Retrieved 2019/02/20 06:00 UTC (8 hours ago):

TAF YBCS 200555Z 2006/2106 25010KT CAVOK